Terminal Aerodrome Forecast
Issued by NWS

Home | Current Version | Previous Version | Text Only | Print | Product List | Glossary On
Versions: 1 2 3 4 5 6 7 8 9 10 11 12 13
596
FTUS44 KLZK 021741
TAFBPK
TAF
KBPK 021741Z 0218/0318 15006KT P6SM SCT250
     FM030300 11005KT P6SM SCT100 OVC250
     FM030700 12005KT P6SM VCSH BKN100 OVC250
     FM031200 09006KT P6SM -RA VCSH BKN050 OVC100=

USA.gov is the U.S. government's official web portal to all federal, state and local government web resources and services.